createdAt,value
2018-01-05T00:00:04.032Z,984.86
2018-01-05T00:01:04.062Z,984.87
2018-01-05T00:02:04.091Z,984.83
2018-01-05T00:03:04.110Z,984.85
2018-01-05T00:04:04.152Z,984.92
2018-01-05T00:05:04.175Z,985.11
2018-01-05T00:06:04.211Z,985.14
2018-01-05T00:07:04.241Z,985.20
2018-01-05T00:08:04.259Z,985.13
2018-01-05T00:09:04.301Z,985.10
2018-01-05T00:10:04.318Z,985.06
2018-01-05T00:11:04.360Z,985.03
2018-01-05T00:12:04.390Z,985.10
2018-01-05T00:13:04.407Z,985.10
2018-01-05T00:14:04.449Z,985.09
2018-01-05T00:15:04.478Z,985.09
2018-01-05T00:16:04.509Z,985.17
2018-01-05T00:17:04.528Z,985.18
2018-01-05T00:18:04.568Z,985.21
2018-01-05T00:19:04.588Z,985.24
2018-01-05T00:20:04.628Z,985.27
2018-01-05T00:21:04.659Z,985.23
2018-01-05T00:22:04.677Z,985.22
2018-01-05T00:23:04.705Z,985.26
2018-01-05T00:24:04.748Z,985.27
2018-01-05T00:25:04.778Z,985.21
2018-01-05T00:26:04.806Z,985.18
2018-01-05T00:27:04.825Z,985.13
2018-01-05T00:28:04.866Z,985.16
2018-01-05T00:29:04.885Z,985.17
2018-01-05T00:30:04.926Z,985.21
2018-01-05T00:31:04.944Z,985.19
2018-01-05T00:32:04.973Z,985.20
2018-01-05T00:33:05.005Z,985.16
2018-01-05T00:34:05.033Z,985.20
2018-01-05T00:35:05.065Z,985.11
2018-01-05T00:36:05.105Z,985.15
2018-01-05T00:37:05.134Z,985.17
2018-01-05T00:38:05.152Z,985.17
2018-01-05T00:39:05.181Z,985.14
2018-01-05T00:40:05.213Z,985.15
2018-01-05T00:41:05.253Z,985.15
2018-01-05T00:42:05.282Z,985.10
2018-01-05T00:43:05.312Z,985.15
2018-01-05T00:44:05.330Z,985.18
2018-01-05T00:45:05.360Z,985.08
2018-01-05T00:46:05.389Z,985.08
2018-01-05T00:47:05.421Z,985.06
2018-01-05T00:48:05.451Z,985.07
2018-01-05T00:49:05.479Z,985.10
2018-01-05T00:50:05.506Z,985.17
2018-01-05T00:51:05.538Z,985.15
2018-01-05T00:52:05.567Z,985.20
2018-01-05T00:53:05.597Z,985.24
2018-01-05T00:54:05.625Z,985.26
2018-01-05T00:55:05.656Z,985.25
2018-01-05T00:56:05.685Z,985.24
2018-01-05T00:57:05.715Z,985.27
2018-01-05T00:58:05.743Z,985.27
2018-01-05T00:59:05.774Z,985.30
2018-01-05T01:00:05.808Z,985.36
2018-01-05T01:01:05.833Z,985.42
2018-01-05T01:02:05.865Z,985.47
2018-01-05T01:03:05.892Z,985.43
2018-01-05T01:04:05.922Z,985.48
2018-01-05T01:05:05.951Z,985.41
2018-01-05T01:06:05.980Z,985.40
2018-01-05T01:07:06.010Z,985.46
2018-01-05T01:08:06.040Z,985.50
2018-01-05T01:09:06.069Z,985.51
2018-01-05T01:10:06.098Z,985.49
2018-01-05T01:11:06.127Z,985.46
2018-01-05T01:12:06.156Z,985.46
2018-01-05T01:13:06.188Z,985.47
2018-01-05T01:14:06.217Z,985.51
2018-01-05T01:15:06.246Z,985.47
2018-01-05T01:16:06.275Z,985.49
2018-01-05T01:17:06.305Z,985.51
2018-01-05T01:18:06.333Z,985.53
2018-01-05T01:19:06.362Z,985.52
2018-01-05T01:20:06.394Z,985.53
2018-01-05T01:21:06.425Z,985.55
2018-01-05T01:22:06.452Z,985.58
2018-01-05T01:23:06.482Z,985.60
2018-01-05T01:24:06.512Z,985.60
2018-01-05T01:25:06.541Z,985.67
2018-01-05T01:26:06.570Z,985.71
2018-01-05T01:27:06.600Z,985.70
2018-01-05T01:28:06.630Z,985.70
2018-01-05T01:29:06.660Z,985.75
2018-01-05T01:30:06.691Z,985.75
2018-01-05T01:31:06.720Z,985.75
2018-01-05T01:32:06.747Z,985.78
2018-01-05T01:33:06.777Z,985.78
2018-01-05T01:34:06.806Z,985.78
2018-01-05T01:35:06.837Z,985.72
2018-01-05T01:36:06.868Z,985.71
2018-01-05T01:37:06.896Z,985.73
2018-01-05T01:38:06.924Z,985.74
2018-01-05T01:39:06.955Z,985.79
2018-01-05T01:40:06.990Z,985.78
2018-01-05T01:41:07.014Z,985.78
2018-01-05T01:42:07.044Z,985.81
2018-01-05T01:43:07.072Z,985.80
2018-01-05T01:44:07.103Z,985.90
2018-01-05T01:45:07.132Z,985.92
2018-01-05T01:46:07.161Z,985.94
2018-01-05T01:47:07.194Z,985.91
2018-01-05T01:48:07.221Z,985.95
2018-01-05T01:49:07.251Z,985.95
2018-01-05T01:50:07.280Z,985.99
2018-01-05T01:51:07.308Z,985.98
2018-01-05T01:52:07.338Z,985.98
2018-01-05T01:53:07.369Z,985.96
2018-01-05T01:54:07.400Z,985.97
2018-01-05T01:55:07.427Z,985.96
2018-01-05T01:56:07.458Z,986.00
2018-01-05T01:57:07.486Z,986.07
2018-01-05T01:58:07.515Z,986.08
2018-01-05T01:59:07.544Z,986.11
2018-01-05T02:00:07.574Z,986.16
2018-01-05T02:01:07.603Z,986.10
2018-01-05T02:02:07.633Z,986.14
2018-01-05T02:03:07.662Z,986.10
2018-01-05T02:04:07.690Z,986.00
2018-01-05T02:05:07.721Z,985.99
2018-01-05T02:06:07.749Z,985.99
2018-01-05T02:07:07.777Z,985.99
2018-01-05T02:08:07.808Z,986.03
2018-01-05T02:09:07.837Z,986.01
2018-01-05T02:10:07.866Z,986.05
2018-01-05T02:11:07.896Z,985.99
2018-01-05T02:12:07.924Z,985.98
2018-01-05T02:13:07.954Z,986.04
2018-01-05T02:14:07.982Z,986.02
2018-01-05T02:15:08.012Z,986.04
2018-01-05T02:16:08.041Z,985.99
2018-01-05T02:17:08.070Z,986.02
2018-01-05T02:18:08.097Z,985.97
2018-01-05T02:19:08.127Z,986.04
2018-01-05T02:20:08.159Z,986.07
2018-01-05T02:21:08.185Z,986.09
2018-01-05T02:22:08.214Z,986.14
2018-01-05T02:23:08.243Z,986.11
2018-01-05T02:24:08.272Z,986.06
2018-01-05T02:25:08.301Z,986.15
2018-01-05T02:26:08.332Z,986.20
2018-01-05T02:27:08.360Z,986.04
2018-01-05T02:28:08.390Z,985.99
2018-01-05T02:29:08.418Z,985.93
2018-01-05T02:30:08.446Z,985.94
2018-01-05T02:31:08.477Z,985.94
2018-01-05T02:32:08.505Z,985.95
2018-01-05T02:33:08.533Z,985.98
2018-01-05T02:34:08.562Z,985.97
2018-01-05T02:35:08.591Z,985.91
2018-01-05T02:36:08.622Z,985.98
2018-01-05T02:37:08.650Z,985.99
2018-01-05T02:38:08.679Z,985.94
2018-01-05T02:39:08.708Z,985.94
2018-01-05T02:40:08.738Z,985.98
2018-01-05T02:41:08.765Z,985.94
2018-01-05T02:42:08.792Z,985.86
2018-01-05T02:43:08.823Z,985.84
2018-01-05T02:44:08.852Z,985.79
2018-01-05T02:45:08.881Z,985.71
2018-01-05T02:46:08.908Z,985.69
2018-01-05T02:47:08.939Z,985.66
2018-01-05T02:48:08.968Z,985.63
2018-01-05T02:49:08.997Z,985.66
2018-01-05T02:50:09.026Z,985.69
2018-01-05T02:51:09.055Z,985.73
2018-01-05T02:52:09.083Z,985.70
2018-01-05T02:53:09.113Z,985.72
2018-01-05T02:54:09.143Z,985.73
2018-01-05T02:55:09.171Z,985.71
2018-01-05T02:56:09.200Z,985.66
2018-01-05T02:57:09.230Z,985.63
2018-01-05T02:58:09.258Z,985.55
2018-01-05T02:59:09.287Z,985.51
2018-01-05T03:00:09.315Z,985.51
2018-01-05T03:01:09.346Z,985.44
2018-01-05T03:02:09.374Z,985.51
2018-01-05T03:03:09.402Z,985.60
2018-01-05T03:04:09.432Z,985.62
2018-01-05T03:05:09.462Z,985.55
2018-01-05T03:06:09.490Z,985.46
2018-01-05T03:07:09.520Z,985.48
2018-01-05T03:08:09.549Z,985.43
2018-01-05T03:09:09.578Z,985.46
2018-01-05T03:10:09.606Z,985.50
2018-01-05T03:11:09.636Z,985.47
2018-01-05T03:12:09.666Z,985.39
2018-01-05T03:13:09.695Z,985.35
2018-01-05T03:14:09.722Z,985.30
2018-01-05T03:15:09.752Z,985.30
2018-01-05T03:16:09.781Z,985.29
2018-01-05T03:17:09.810Z,985.32
2018-01-05T03:18:09.839Z,985.30
2018-01-05T03:19:09.869Z,985.31
2018-01-05T03:20:09.896Z,985.27
2018-01-05T03:21:09.926Z,985.28
2018-01-05T03:22:09.956Z,985.26
2018-01-05T03:23:09.984Z,985.21
2018-01-05T03:24:10.014Z,985.24
2018-01-05T03:25:10.043Z,985.14
2018-01-05T03:26:10.071Z,985.16
2018-01-05T03:27:10.098Z,985.14
2018-01-05T03:28:10.129Z,985.11
2018-01-05T03:29:10.159Z,985.08
2018-01-05T03:30:10.193Z,985.09
2018-01-05T03:31:10.287Z,984.97
2018-01-05T03:32:10.250Z,985.02
2018-01-05T03:33:10.275Z,985.04
2018-01-05T03:34:10.303Z,984.98
2018-01-05T03:35:10.332Z,985.01
2018-01-05T03:36:10.361Z,985.00
2018-01-05T03:37:10.391Z,984.92
2018-01-05T03:38:10.419Z,984.88
2018-01-05T03:39:10.448Z,984.89
2018-01-05T03:40:10.478Z,984.95
2018-01-05T03:41:10.507Z,984.89
2018-01-05T03:42:10.535Z,984.86
2018-01-05T03:43:10.563Z,984.96
2018-01-05T03:44:10.594Z,984.95
2018-01-05T03:45:10.626Z,984.94
2018-01-05T03:46:10.654Z,984.91
2018-01-05T03:47:10.682Z,984.92
2018-01-05T03:48:10.709Z,984.93
2018-01-05T03:49:10.739Z,984.96
2018-01-05T03:50:10.767Z,984.96
2018-01-05T03:51:10.795Z,985.02
2018-01-05T03:52:10.825Z,985.01
2018-01-05T03:53:10.861Z,984.99
2018-01-05T03:54:10.884Z,985.03
2018-01-05T03:55:10.913Z,984.99
2018-01-05T03:56:10.942Z,984.90
2018-01-05T03:57:10.972Z,984.92
2018-01-05T03:58:10.998Z,984.98
2018-01-05T03:59:11.028Z,985.03
2018-01-05T04:00:11.056Z,984.99
2018-01-05T04:01:11.087Z,984.93
2018-01-05T04:02:11.114Z,984.95
2018-01-05T04:03:11.144Z,984.88
2018-01-05T04:04:11.174Z,984.94
2018-01-05T04:05:11.203Z,984.90
2018-01-05T04:06:11.231Z,984.89
2018-01-05T04:07:11.260Z,984.96
2018-01-05T04:08:11.288Z,984.90
2018-01-05T04:09:11.317Z,984.91
2018-01-05T04:10:11.349Z,984.87
2018-01-05T04:11:11.376Z,984.84
2018-01-05T04:12:11.405Z,984.82
2018-01-05T04:13:11.434Z,984.76
2018-01-05T04:14:11.464Z,984.83
2018-01-05T04:15:11.491Z,984.80
2018-01-05T04:16:11.520Z,984.81
2018-01-05T04:17:11.549Z,984.86
2018-01-05T04:18:11.578Z,984.82
2018-01-05T04:19:11.606Z,984.76
2018-01-05T04:20:11.636Z,984.68
2018-01-05T04:21:11.666Z,984.69
2018-01-05T04:22:11.693Z,984.71
2018-01-05T04:23:11.723Z,984.71
2018-01-05T04:24:11.752Z,984.63
2018-01-05T04:25:11.779Z,984.65
2018-01-05T04:26:11.809Z,984.56
2018-01-05T04:27:11.838Z,984.53
2018-01-05T04:28:11.867Z,984.55
2018-01-05T04:29:11.895Z,984.51
2018-01-05T04:30:11.925Z,984.47
2018-01-05T04:31:11.955Z,984.46
2018-01-05T04:32:11.985Z,984.42
2018-01-05T04:33:12.012Z,984.39
2018-01-05T04:34:12.040Z,984.50
2018-01-05T04:35:12.073Z,984.39
2018-01-05T04:36:12.099Z,984.48
2018-01-05T04:37:12.128Z,984.52
2018-01-05T04:38:12.157Z,984.43
2018-01-05T04:39:12.187Z,984.44
2018-01-05T04:40:12.218Z,984.50
2018-01-05T04:41:12.246Z,984.42
2018-01-05T04:42:12.274Z,984.47
2018-01-05T04:43:12.303Z,984.48
2018-01-05T04:44:12.334Z,984.47
2018-01-05T04:45:12.363Z,984.40
2018-01-05T04:46:12.394Z,984.39
2018-01-05T04:47:12.422Z,984.36
2018-01-05T04:48:12.452Z,984.40
2018-01-05T04:49:12.481Z,984.45
2018-01-05T04:50:12.510Z,984.43
2018-01-05T04:51:12.540Z,984.32
2018-01-05T04:52:12.569Z,984.24
2018-01-05T04:53:12.600Z,984.31
2018-01-05T04:54:12.629Z,984.35
2018-01-05T04:55:12.658Z,984.35
2018-01-05T04:56:12.689Z,984.34
2018-01-05T04:57:12.718Z,984.28
2018-01-05T04:58:12.747Z,984.36
2018-01-05T04:59:12.778Z,984.30
2018-01-05T05:00:12.808Z,984.26
2018-01-05T05:01:12.838Z,984.30
2018-01-05T05:02:12.866Z,984.18
2018-01-05T05:03:12.920Z,984.22
2018-01-05T05:04:12.927Z,984.26
2018-01-05T05:05:12.956Z,984.11
2018-01-05T05:06:12.986Z,984.06
2018-01-05T05:07:13.018Z,984.15
2018-01-05T05:08:13.046Z,984.17
2018-01-05T05:09:13.076Z,984.19
2018-01-05T05:10:13.106Z,984.16
2018-01-05T05:11:13.136Z,984.21
2018-01-05T05:12:13.168Z,984.11
2018-01-05T05:13:13.197Z,984.09
2018-01-05T05:14:13.226Z,984.10
2018-01-05T05:15:13.256Z,984.17
2018-01-05T05:16:13.285Z,984.07
2018-01-05T05:17:13.318Z,984.09
2018-01-05T05:18:13.347Z,984.18
2018-01-05T05:19:13.376Z,984.24
2018-01-05T05:20:13.425Z,984.29
2018-01-05T05:21:13.437Z,984.23
2018-01-05T05:22:13.466Z,984.25
2018-01-05T05:23:13.498Z,984.21
2018-01-05T05:24:13.527Z,984.18
2018-01-05T05:25:13.558Z,984.21
2018-01-05T05:26:13.587Z,984.21
2018-01-05T05:27:13.618Z,984.22
2018-01-05T05:28:13.647Z,984.20
2018-01-05T05:29:13.678Z,984.20
2018-01-05T05:30:13.707Z,984.12
2018-01-05T05:31:13.739Z,984.06
2018-01-05T05:32:13.769Z,984.16
2018-01-05T05:33:13.798Z,984.20
2018-01-05T05:34:13.829Z,984.05
2018-01-05T05:35:13.859Z,984.20
2018-01-05T05:36:13.890Z,984.19
2018-01-05T05:37:13.919Z,984.12
2018-01-05T05:38:13.955Z,984.22
2018-01-05T05:39:13.980Z,984.13
2018-01-05T05:40:14.011Z,984.19
2018-01-05T05:41:14.042Z,984.13
2018-01-05T05:42:14.069Z,984.08
2018-01-05T05:43:14.100Z,984.09
2018-01-05T05:44:14.131Z,984.15
2018-01-05T05:45:14.163Z,984.11
2018-01-05T05:46:14.192Z,984.14
2018-01-05T05:47:14.222Z,984.12
2018-01-05T05:48:14.253Z,984.13
2018-01-05T05:49:14.289Z,984.18
2018-01-05T05:50:14.313Z,984.28
2018-01-05T05:51:14.344Z,984.23
2018-01-05T05:52:14.374Z,984.27
2018-01-05T05:53:14.405Z,984.21
2018-01-05T05:54:14.435Z,984.23
2018-01-05T05:55:14.465Z,984.15
2018-01-05T05:56:14.500Z,984.15
2018-01-05T05:57:14.527Z,984.10
2018-01-05T05:58:14.557Z,984.11
2018-01-05T05:59:14.587Z,984.04
2018-01-05T06:00:14.618Z,984.05
2018-01-05T06:01:14.649Z,984.06
2018-01-05T06:02:14.678Z,984.10
2018-01-05T06:03:14.708Z,984.09
2018-01-05T06:04:14.740Z,984.23
2018-01-05T06:05:14.770Z,984.07
2018-01-05T06:06:14.800Z,984.11
2018-01-05T06:07:14.830Z,984.10
2018-01-05T06:08:14.861Z,984.07
2018-01-05T06:09:14.892Z,984.15
2018-01-05T06:10:14.922Z,984.08
2018-01-05T06:11:14.953Z,984.08
2018-01-05T06:12:14.984Z,984.01
2018-01-05T06:13:15.015Z,983.95
2018-01-05T06:14:15.044Z,983.97
2018-01-05T06:15:15.075Z,983.98
2018-01-05T06:16:15.105Z,984.00
2018-01-05T06:17:15.135Z,984.02
2018-01-05T06:18:15.167Z,983.99
2018-01-05T06:19:15.196Z,984.02
2018-01-05T06:20:15.228Z,983.95
2018-01-05T06:21:15.260Z,983.99
2018-01-05T06:22:15.288Z,983.99
2018-01-05T06:23:15.319Z,983.94
2018-01-05T06:24:15.351Z,983.99
2018-01-05T06:25:15.380Z,983.94
2018-01-05T06:26:15.411Z,983.92
2018-01-05T06:27:15.441Z,983.85
2018-01-05T06:28:15.472Z,983.90
2018-01-05T06:29:15.502Z,983.80
2018-01-05T06:30:15.533Z,983.84
2018-01-05T06:31:15.563Z,983.86
2018-01-05T06:32:15.600Z,983.88
2018-01-05T06:33:15.628Z,983.82
2018-01-05T06:34:15.655Z,983.88
2018-01-05T06:35:15.686Z,983.84
2018-01-05T06:36:15.716Z,983.81
2018-01-05T06:37:15.747Z,983.80
2018-01-05T06:38:15.777Z,983.78
2018-01-05T06:39:15.808Z,983.77
2018-01-05T06:40:15.840Z,983.86
2018-01-05T06:41:15.869Z,983.88
2018-01-05T06:42:15.899Z,983.81
2018-01-05T06:43:15.929Z,983.85
2018-01-05T06:44:15.961Z,983.86
2018-01-05T06:45:15.992Z,983.87
2018-01-05T06:46:16.023Z,983.90
2018-01-05T06:47:16.053Z,983.85
2018-01-05T06:48:16.090Z,983.93
2018-01-05T06:49:16.115Z,983.91
2018-01-05T06:50:16.147Z,983.91
2018-01-05T06:51:16.175Z,983.82
2018-01-05T06:52:16.206Z,983.82
2018-01-05T06:53:16.239Z,983.82
2018-01-05T06:54:16.288Z,983.85
2018-01-05T06:55:16.300Z,983.93
2018-01-05T06:56:16.329Z,983.87
2018-01-05T06:57:16.361Z,983.81
2018-01-05T06:58:16.390Z,983.79
2018-01-05T06:59:16.420Z,983.79
2018-01-05T07:00:16.450Z,983.76
2018-01-05T07:01:16.484Z,983.74
2018-01-05T07:02:16.512Z,983.65
2018-01-05T07:03:16.543Z,983.78
2018-01-05T07:04:16.574Z,983.77
2018-01-05T07:05:16.605Z,983.78
2018-01-05T07:06:16.634Z,983.78
2018-01-05T07:07:16.665Z,983.70
2018-01-05T07:08:16.698Z,983.72
2018-01-05T07:09:16.727Z,983.74
2018-01-05T07:10:16.812Z,983.68
2018-01-05T07:11:16.789Z,983.64
2018-01-05T07:12:16.820Z,983.71
2018-01-05T07:13:16.852Z,983.62
2018-01-05T07:14:16.880Z,983.61
2018-01-05T07:15:16.910Z,983.55
2018-01-05T07:16:16.942Z,983.58
2018-01-05T07:17:16.973Z,983.50
2018-01-05T07:18:17.003Z,983.53
2018-01-05T07:19:17.061Z,983.52
2018-01-05T07:20:17.064Z,983.55
2018-01-05T07:21:17.095Z,983.61
2018-01-05T07:22:17.126Z,983.52
2018-01-05T07:23:17.157Z,983.56
2018-01-05T07:24:17.189Z,983.53
2018-01-05T07:25:17.218Z,983.54
2018-01-05T07:26:17.248Z,983.51
2018-01-05T07:27:17.283Z,983.37
2018-01-05T07:28:17.312Z,983.32
2018-01-05T07:29:17.342Z,983.26
2018-01-05T07:30:17.371Z,983.32
2018-01-05T07:31:17.404Z,983.32
2018-01-05T07:32:17.435Z,983.33
2018-01-05T07:33:17.466Z,983.32
2018-01-05T07:34:17.495Z,983.30
2018-01-05T07:35:17.527Z,983.25
2018-01-05T07:36:17.559Z,983.23
2018-01-05T07:37:17.592Z,983.23
2018-01-05T07:38:17.620Z,983.26
2018-01-05T07:39:17.650Z,983.21
2018-01-05T07:40:17.683Z,983.19
2018-01-05T07:41:17.714Z,983.24
2018-01-05T07:42:17.744Z,983.20
2018-01-05T07:43:17.775Z,983.33
2018-01-05T07:44:17.807Z,983.38
2018-01-05T07:45:17.839Z,983.34
2018-01-05T07:46:17.869Z,983.40
2018-01-05T07:47:17.900Z,983.42
2018-01-05T07:48:17.933Z,983.37
2018-01-05T07:49:17.967Z,983.39
2018-01-05T07:50:18.008Z,983.40
2018-01-05T07:51:18.025Z,983.45
2018-01-05T07:52:18.059Z,983.46
2018-01-05T07:53:18.088Z,983.53
2018-01-05T07:54:18.118Z,983.58
2018-01-05T07:55:18.150Z,983.53
2018-01-05T07:56:18.183Z,983.55
2018-01-05T07:57:18.214Z,983.56
2018-01-05T07:58:18.245Z,983.57
2018-01-05T07:59:18.276Z,983.58
2018-01-05T08:00:18.309Z,983.55
2018-01-05T08:01:18.339Z,983.49
2018-01-05T08:02:18.371Z,983.44
2018-01-05T08:03:18.407Z,983.46
2018-01-05T08:04:18.436Z,983.39
2018-01-05T08:05:18.469Z,983.33
2018-01-05T08:06:18.500Z,983.33
2018-01-05T08:07:18.533Z,983.31
2018-01-05T08:08:18.565Z,983.33
2018-01-05T08:09:18.598Z,983.25
2018-01-05T08:10:18.631Z,983.28
2018-01-05T08:11:18.661Z,983.35
2018-01-05T08:12:18.694Z,983.29
2018-01-05T08:13:18.729Z,983.37
2018-01-05T08:14:18.760Z,983.31
2018-01-05T08:15:18.793Z,983.34
2018-01-05T08:16:18.825Z,983.33
2018-01-05T08:17:18.860Z,983.36
2018-01-05T08:18:18.890Z,983.30
2018-01-05T08:19:18.923Z,983.23
2018-01-05T08:20:18.955Z,983.30
2018-01-05T08:21:18.988Z,983.21
2018-01-05T08:22:19.021Z,983.28
2018-01-05T08:23:19.053Z,983.27
2018-01-05T08:24:19.085Z,983.29
2018-01-05T08:25:19.119Z,983.30
2018-01-05T08:26:19.150Z,983.26
2018-01-05T08:27:19.183Z,983.32
2018-01-05T08:28:19.216Z,983.34
2018-01-05T08:29:19.249Z,983.34
2018-01-05T08:30:19.281Z,983.35
2018-01-05T08:31:19.314Z,983.39
2018-01-05T08:32:19.347Z,983.33
2018-01-05T08:33:19.379Z,983.28
2018-01-05T08:34:19.411Z,983.25
2018-01-05T08:35:19.444Z,983.20
2018-01-05T08:36:19.477Z,983.25
2018-01-05T08:37:19.510Z,983.15
2018-01-05T08:38:19.543Z,983.11
2018-01-05T08:39:19.576Z,983.18
2018-01-05T08:40:19.607Z,983.26
2018-01-05T08:41:19.640Z,983.27
2018-01-05T08:42:19.671Z,983.29
2018-01-05T08:43:19.739Z,983.32
2018-01-05T08:44:19.739Z,983.37
2018-01-05T08:45:19.772Z,983.32
2018-01-05T08:46:19.806Z,983.14
2018-01-05T08:47:19.837Z,983.20
2018-01-05T08:48:19.870Z,983.13
2018-01-05T08:49:19.904Z,983.06
2018-01-05T08:50:19.937Z,983.06
2018-01-05T08:51:19.970Z,983.09
2018-01-05T08:52:20.004Z,983.19
2018-01-05T08:53:20.037Z,983.05
2018-01-05T08:54:20.068Z,983.05
2018-01-05T08:55:20.102Z,983.10
2018-01-05T08:56:20.136Z,983.09
2018-01-05T08:57:20.170Z,983.10
2018-01-05T08:58:20.203Z,983.14
2018-01-05T08:59:20.235Z,982.94
2018-01-05T09:00:20.270Z,982.97
2018-01-05T09:01:20.304Z,983.04
2018-01-05T09:02:20.336Z,983.00
2018-01-05T09:03:20.371Z,983.04
2018-01-05T09:04:20.404Z,983.03
2018-01-05T09:05:20.438Z,982.99
2018-01-05T09:06:20.470Z,983.01
2018-01-05T09:07:20.505Z,982.94
2018-01-05T09:08:20.541Z,982.91
2018-01-05T09:09:20.572Z,982.81
2018-01-05T09:10:20.604Z,982.81
2018-01-05T09:11:20.638Z,982.80
2018-01-05T09:12:20.672Z,982.84
2018-01-05T09:13:20.704Z,982.89
2018-01-05T09:14:20.738Z,982.87
2018-01-05T09:15:20.772Z,982.88
2018-01-05T09:16:20.806Z,982.88
2018-01-05T09:17:20.838Z,982.86
2018-01-05T09:18:20.870Z,982.84
2018-01-05T09:19:20.905Z,982.82
2018-01-05T09:20:20.937Z,982.83
2018-01-05T09:21:20.971Z,982.87
2018-01-05T09:22:21.002Z,982.88
2018-01-05T09:23:21.036Z,982.87
2018-01-05T09:24:21.069Z,982.86
2018-01-05T09:25:21.102Z,982.86
2018-01-05T09:26:21.135Z,982.87
2018-01-05T09:27:21.167Z,982.90
2018-01-05T09:28:21.201Z,982.88
2018-01-05T09:29:21.234Z,982.87
2018-01-05T09:30:21.267Z,982.81
2018-01-05T09:31:21.299Z,982.84
2018-01-05T09:32:21.332Z,982.87
2018-01-05T09:33:21.367Z,982.90
2018-01-05T09:34:21.400Z,982.86
2018-01-05T09:35:21.430Z,982.85
2018-01-05T09:36:21.469Z,982.92
2018-01-05T09:37:21.498Z,982.88
2018-01-05T09:38:21.529Z,982.89
2018-01-05T09:39:21.564Z,982.91
2018-01-05T09:40:21.597Z,982.89
2018-01-05T09:41:21.629Z,982.88
2018-01-05T09:42:21.663Z,982.86
2018-01-05T09:43:21.697Z,982.84
2018-01-05T09:44:21.730Z,982.79
2018-01-05T09:45:21.764Z,982.79
2018-01-05T09:46:21.798Z,982.76
2018-01-05T09:47:21.830Z,982.78
2018-01-05T09:48:21.864Z,982.75
2018-01-05T09:49:21.897Z,982.73
2018-01-05T09:50:21.930Z,982.76
2018-01-05T09:51:21.964Z,982.76
2018-01-05T09:52:21.998Z,982.74
2018-01-05T09:53:22.033Z,982.77
2018-01-05T09:54:22.064Z,982.71
2018-01-05T09:55:22.101Z,982.77
2018-01-05T09:56:22.131Z,982.75
2018-01-05T09:57:22.166Z,982.71
2018-01-05T09:58:22.202Z,982.72
2018-01-05T09:59:22.233Z,982.72
2018-01-05T10:00:22.267Z,982.67
2018-01-05T10:01:22.300Z,982.65
2018-01-05T10:02:22.333Z,982.62
2018-01-05T10:03:22.367Z,982.59
2018-01-05T10:04:22.403Z,982.56
2018-01-05T10:05:22.435Z,982.46
2018-01-05T10:06:22.468Z,982.44
2018-01-05T10:07:22.501Z,982.46
2018-01-05T10:08:22.537Z,982.46
2018-01-05T10:09:22.569Z,982.37
2018-01-05T10:10:22.601Z,982.33
2018-01-05T10:11:22.635Z,982.32
2018-01-05T10:12:22.669Z,982.35
2018-01-05T10:13:22.702Z,982.44
2018-01-05T10:14:22.736Z,982.39
2018-01-05T10:15:22.768Z,982.34
2018-01-05T10:16:22.802Z,982.37
2018-01-05T10:17:22.835Z,982.34
2018-01-05T10:18:22.868Z,982.40
2018-01-05T10:19:22.901Z,982.41
2018-01-05T10:20:22.934Z,982.46
2018-01-05T10:21:22.968Z,982.38
2018-01-05T10:22:23.001Z,982.35
2018-01-05T10:23:23.033Z,982.29
2018-01-05T10:24:23.065Z,982.21
2018-01-05T10:25:23.100Z,982.28
2018-01-05T10:26:23.132Z,982.29
2018-01-05T10:27:23.165Z,982.24
2018-01-05T10:28:23.199Z,982.16
2018-01-05T10:29:23.231Z,982.14
2018-01-05T10:30:23.263Z,982.11
2018-01-05T10:31:23.297Z,982.08
2018-01-05T10:32:23.330Z,982.09
2018-01-05T10:33:23.362Z,982.05
2018-01-05T10:34:23.396Z,982.05
2018-01-05T10:35:23.428Z,982.01
2018-01-05T10:36:23.460Z,981.99
2018-01-05T10:37:23.494Z,981.97
2018-01-05T10:38:23.527Z,981.96
2018-01-05T10:39:23.559Z,981.92
2018-01-05T10:40:23.593Z,981.88
2018-01-05T10:41:23.627Z,981.83
2018-01-05T10:42:23.658Z,981.85
2018-01-05T10:43:23.692Z,981.84
2018-01-05T10:44:23.729Z,981.82
2018-01-05T10:45:23.758Z,981.82
2018-01-05T10:46:23.793Z,981.86
2018-01-05T10:47:23.824Z,981.87
2018-01-05T10:48:23.859Z,981.90
2018-01-05T10:49:23.893Z,981.91
2018-01-05T10:50:23.923Z,981.88
2018-01-05T10:51:23.958Z,981.90
2018-01-05T10:52:23.990Z,981.83
2018-01-05T10:53:24.028Z,981.89
2018-01-05T10:54:24.057Z,981.84
2018-01-05T10:55:24.091Z,981.83
2018-01-05T10:56:24.125Z,981.87
2018-01-05T10:57:24.157Z,981.87
2018-01-05T10:58:24.191Z,981.78
2018-01-05T10:59:24.225Z,981.77
2018-01-05T11:00:24.258Z,981.76
2018-01-05T11:01:24.290Z,981.77
2018-01-05T11:02:24.324Z,981.73
2018-01-05T11:03:24.357Z,981.77
2018-01-05T11:04:24.392Z,981.73
2018-01-05T11:05:24.424Z,981.73
2018-01-05T11:06:24.458Z,981.70
2018-01-05T11:07:24.492Z,981.70
2018-01-05T11:08:24.525Z,981.70
2018-01-05T11:09:24.558Z,981.73
2018-01-05T11:10:24.591Z,981.75
2018-01-05T11:11:24.624Z,981.80
2018-01-05T11:12:24.658Z,981.83
2018-01-05T11:13:24.691Z,981.76
2018-01-05T11:14:24.724Z,981.68
2018-01-05T11:15:24.758Z,981.69
2018-01-05T11:16:24.791Z,981.68
2018-01-05T11:17:24.824Z,981.70
2018-01-05T11:18:24.858Z,981.69
2018-01-05T11:19:24.892Z,981.68
2018-01-05T11:20:24.924Z,981.69
2018-01-05T11:21:24.958Z,981.68
2018-01-05T11:22:24.990Z,981.63
2018-01-05T11:23:25.023Z,981.62
2018-01-05T11:24:25.058Z,981.58
2018-01-05T11:25:25.090Z,981.55
2018-01-05T11:26:25.123Z,981.56
2018-01-05T11:27:25.156Z,981.54
2018-01-05T11:28:25.189Z,981.52
2018-01-05T11:29:25.223Z,981.50
2018-01-05T11:30:25.255Z,981.49
2018-01-05T11:31:25.287Z,981.50
2018-01-05T11:32:25.322Z,981.48
2018-01-05T11:33:25.356Z,981.50
2018-01-05T11:34:25.386Z,981.47
2018-01-05T11:35:25.422Z,981.45
2018-01-05T11:36:25.454Z,981.44
2018-01-05T11:37:25.487Z,981.41
2018-01-05T11:38:25.520Z,981.46
2018-01-05T11:39:25.552Z,981.48
2018-01-05T11:40:25.586Z,981.45
2018-01-05T11:41:25.622Z,981.44
2018-01-05T11:42:25.651Z,981.39
2018-01-05T11:43:25.685Z,981.53
2018-01-05T11:44:25.719Z,981.45
2018-01-05T11:45:25.752Z,981.43
2018-01-05T11:46:25.784Z,981.44
2018-01-05T11:47:25.817Z,981.45
2018-01-05T11:48:25.851Z,981.44
2018-01-05T11:49:25.886Z,981.41
2018-01-05T11:50:25.916Z,981.41
2018-01-05T11:51:25.948Z,981.38
2018-01-05T11:52:25.983Z,981.38
2018-01-05T11:53:26.016Z,981.36
2018-01-05T11:54:26.047Z,981.37
2018-01-05T11:55:26.082Z,981.35
2018-01-05T11:56:26.121Z,981.34
2018-01-05T11:57:26.150Z,981.25
2018-01-05T11:58:26.180Z,981.39
2018-01-05T11:59:26.216Z,981.27
2018-01-05T12:00:26.248Z,981.27
2018-01-05T12:01:26.280Z,981.23
2018-01-05T12:02:26.314Z,981.26
2018-01-05T12:03:26.345Z,981.30
2018-01-05T12:04:26.378Z,981.25
2018-01-05T12:05:26.410Z,981.23
2018-01-05T12:06:26.444Z,981.23
2018-01-05T12:07:26.477Z,981.21
2018-01-05T12:08:26.510Z,981.26
2018-01-05T12:09:26.544Z,981.19
2018-01-05T12:10:26.578Z,981.21
2018-01-05T12:11:26.608Z,981.20
2018-01-05T12:12:26.643Z,981.25
2018-01-05T12:13:26.677Z,981.39
2018-01-05T12:14:26.707Z,981.16
2018-01-05T12:15:26.742Z,981.25
2018-01-05T12:16:26.774Z,981.22
2018-01-05T12:17:26.806Z,981.25
2018-01-05T12:18:26.839Z,981.15
2018-01-05T12:19:26.872Z,981.15
2018-01-05T12:20:26.906Z,981.14
2018-01-05T12:21:26.939Z,981.16
2018-01-05T12:22:26.975Z,981.08
2018-01-05T12:23:27.005Z,981.09
2018-01-05T12:24:27.039Z,981.05
2018-01-05T12:25:27.071Z,981.10
2018-01-05T12:26:27.103Z,981.15
2018-01-05T12:27:27.136Z,981.12
2018-01-05T12:28:27.168Z,981.02